Key West International Airport
KEYW : now visible

Aeroporto :











RITROVATECI SU...

 
LOGIN :

Iscrizione | Disclaimer

   EN    FR    IT 

 









Sommario :    VFR   VFR Marginale   IFR   IFR Intensivo   IFR Molto Intensivo
Visibilità : 
Base nubi : 
>= 8 km
>= 3000ft
5 / 8 km
1000 / 3000 ft
1500m / 5 km
500 / 1000 ft
800 / 1500m
200 / 500 ft
< 800m
< 200 ft
Simboli :   Temporali  Nebbia  Neve Forte  Precipitazioni Forti  Vento > 20 kt







- Altitudine del aeroporto : 3 ft
- Codice IATA : EYW


KEYW - Key West International

ULTIMO METAR :
  • 201353Z 32013KT 10SM SCT045 OVC055 25/18 A3002 RMK AO2 SLP165 T02500178

METARs OBSOLETI :
  • 201253Z 29009KT 10SM BKN065 24/16 A3000 RMK AO2 SLP159 T02440161
  • 201153Z 31010KT 10SM OVC070 24/16 A3000 RMK AO2 SLP158 70172 T02390156 10239 20233 51018

TAF KEYW
Valido dal 20 a 12 ore il 21 a 12 ore UTC


201138Z 2012/2112 31013KT P6SM SCT040
FM201600 31015G21KT P6SM SCT035
FM202300 31010KT P6SM BKN035
FIR KZMA / America del Nord



MetMap, La meteo Aeronautica in un colpo d'occhio ! - Copyright ORBIFLY Dicembre 2007 - Disclaimer

ORBIFLY MET'MAP TEAM :

Programmazione e sviluppo : Alexandra Zaïnal
Concezione e sviluppo : Baudouin d'Aumeries
Co-Programmazione e sviluppo : Marc-Olivier Méhu
Supporto tecnico e logistico : Manuel Goepfert
Aiuto per la traduzione : Arnaldo La Scala

Contatto : metmap@orbifly.com




FONTI E CREDITI :

   NOAA       Earth
Advisory